Main page
METAR-TAF:

METAR-TAF

Airports :

Churchill Airport

Churchill, Manitoba, Canada

latitude: 58-44N, longitude: 094-04W, elevation: 28 m

Current weather observation

The report was made 24 minutes ago, at 00:42 UTC
Wind 11 kt from the West/Northwest
Temperature -23°C
Humidity 76%
Pressure 1012 hPa
Visibility: 24.1 km
Clear sky

METAR: CYYQ 070042Z 30011KT 15SM SKC M23/M26 A2989 RMK SLP129

Time: 19:06 (01:06 UTC)

Forecast

The report was made 1 hour and 25 minutes ago, at 23:41 UTC
Forecast valid from 07 at 00 UTC to 07 at 24 UTC
Wind 12 kt from the West/Northwest with gusts up to 22 kt
Visibility: 10 km
Clear sky
From 07 at 0800 UTC
Wind 8 kt from the West
Visibility: 10 km
Clear sky
From 07 at 2000 UTC
Wind 12 kt from the West/Northwest with gusts up to 22 kt
Visibility: 10 km
Clear sky

TAF: CYYQ 062341Z 0700/0724 30012G22KT P6SM SKC FM070800 26008KT P6SM SKC FM072000 30012G22KT P6SM SKC RMK NXT FCST BY 070600Z

Weather observations and forecasts of more than 4000 airports (METAR and TAF reports).

The available stations are represented by yellow and red dots on the map.

Hover mouse over dot to see the name of the station.

Then click to see weather observations and forecasts.

To change the map : click on the green buttons with a black cross to zoom in, on the green button with a dash to zoom out, or on the green arrows for adjacent maps.


METAR-TAF: